Aviation Digital Data Service (ADDS)

Output produced by METARs form (2113 UTC 02 September 2014)
found at http://aviationweather.gov/adds/metars/
 
KPHL 022101Z 0221/0324 23010G18KT P6SM SCT040 BKN150 
     FM030000 23010KT P6SM -SHRA BKN050 
     TEMPO 0300/0302 3SM TSRA BKN035CB 
     FM030400 29007KT P6SM SCT250 
     FM030800 32005KT P6SM SCT150